sim
Sign-in with your pilot id or email,
or register
Callsign
Passwort

Schedule Details

Flight Number: EWG1973 (1)
Departure: Hamburg Airport (EDDH) at 08:20
Arrival: Munich Airport (EDDM) at 09:45
Route: Eurowings Passenger Schedule. Enter filed route here before submitting Pirep.

Weather Information
Getting current METAR information for EDDH 231020Z 22005KT 140V260 CAVOK 20/10 Q1004 NOSIG
Getting current METAR information for EDDM 231020Z 26010KT 9000 -SHRA FEW007 FEW015TCU BKN032 15/14 Q1010 NOSIG

Schedule Frequency

Route Map